sensor_id;sensor_type;location;lat;lon;timestamp;P1;durP1;ratioP1;P2;durP2;ratioP2
34585;SDS011;20816;50.950;11.108;2022-12-08T00:02:17;1.80;;;1.47;;
34585;SDS011;20816;50.950;11.108;2022-12-08T00:04:44;3.03;;;1.47;;
34585;SDS011;20816;50.950;11.108;2022-12-08T00:07:29;1.53;;;1.43;;
34585;SDS011;20816;50.950;11.108;2022-12-08T00:10:14;1.73;;;0.97;;
34585;SDS011;20816;50.950;11.108;2022-12-08T00:13:01;3.03;;;1.80;;
34585;SDS011;20816;50.950;11.108;2022-12-08T00:15:27;1.73;;;1.33;;
34585;SDS011;20816;50.950;11.108;2022-12-08T00:17:54;3.63;;;1.17;;
34585;SDS011;20816;50.950;11.108;2022-12-08T00:20:21;6.00;;;1.67;;
34585;SDS011;20816;50.950;11.108;2022-12-08T00:22:47;1.70;;;1.53;;
34585;SDS011;20816;50.950;11.108;2022-12-08T00:25:14;3.20;;;1.90;;
34585;SDS011;20816;50.950;11.108;2022-12-08T00:27:41;1.33;;;1.10;;
34585;SDS011;20816;50.950;11.108;2022-12-08T00:30:08;4.63;;;1.50;;
34585;SDS011;20816;50.950;11.108;2022-12-08T00:32:35;2.73;;;1.90;;
34585;SDS011;20816;50.950;11.108;2022-12-08T00:35:03;3.00;;;1.67;;
34585;SDS011;20816;50.950;11.108;2022-12-08T00:37:30;5.53;;;1.83;;
34585;SDS011;20816;50.950;11.108;2022-12-08T00:39:57;3.37;;;1.00;;
34585;SDS011;20816;50.950;11.108;2022-12-08T00:42:23;3.73;;;1.50;;
34585;SDS011;20816;50.950;11.108;2022-12-08T00:44:50;1.47;;;1.20;;
34585;SDS011;20816;50.950;11.108;2022-12-08T00:47:16;3.33;;;1.10;;
34585;SDS011;20816;50.950;11.108;2022-12-08T00:49:49;3.00;;;1.20;;
34585;SDS011;20816;50.950;11.108;2022-12-08T00:52:17;1.23;;;0.97;;
34585;SDS011;20816;50.950;11.108;2022-12-08T00:54:44;1.43;;;1.13;;
34585;SDS011;20816;50.950;11.108;2022-12-08T00:57:10;2.03;;;1.30;;
34585;SDS011;20816;50.950;11.108;2022-12-08T00:59:38;3.70;;;1.50;;
34585;SDS011;20816;50.950;11.108;2022-12-08T01:02:04;1.63;;;1.27;;
34585;SDS011;20816;50.950;11.108;2022-12-08T01:04:31;2.53;;;1.23;;
34585;SDS011;20816;50.950;11.108;2022-12-08T01:06:58;6.67;;;1.70;;
34585;SDS011;20816;50.950;11.108;2022-12-08T01:09:24;4.73;;;1.00;;
34585;SDS011;20816;50.950;11.108;2022-12-08T01:11:51;7.07;;;1.20;;
34585;SDS011;20816;50.950;11.108;2022-12-08T01:14:17;2.00;;;1.57;;
34585;SDS011;20816;50.950;11.108;2022-12-08T01:16:44;10.40;;;1.63;;
34585;SDS011;20816;50.950;11.108;2022-12-08T01:19:11;3.90;;;1.13;;
34585;SDS011;20816;50.950;11.108;2022-12-08T01:21:40;2.00;;;1.77;;
34585;SDS011;20816;50.950;11.108;2022-12-08T01:24:11;2.93;;;1.30;;
34585;SDS011;20816;50.950;11.108;2022-12-08T01:26:40;1.37;;;1.03;;
34585;SDS011;20816;50.950;11.108;2022-12-08T01:29:07;1.97;;;1.30;;
34585;SDS011;20816;50.950;11.108;2022-12-08T01:31:34;2.10;;;1.03;;
34585;SDS011;20816;50.950;11.108;2022-12-08T01:34:01;1.90;;;1.00;;
34585;SDS011;20816;50.950;11.108;2022-12-08T01:36:28;1.43;;;0.83;;
34585;SDS011;20816;50.950;11.108;2022-12-08T01:38:57;2.13;;;0.97;;
34585;SDS011;20816;50.950;11.108;2022-12-08T01:41:26;3.20;;;1.97;;
34585;SDS011;20816;50.950;11.108;2022-12-08T01:43:59;2.70;;;1.13;;
34585;SDS011;20816;50.950;11.108;2022-12-08T01:46:27;4.70;;;1.53;;
34585;SDS011;20816;50.950;11.108;2022-12-08T01:48:58;3.23;;;1.67;;
34585;SDS011;20816;50.950;11.108;2022-12-08T01:51:29;2.00;;;1.47;;
34585;SDS011;20816;50.950;11.108;2022-12-08T01:54:01;1.57;;;1.47;;
34585;SDS011;20816;50.950;11.108;2022-12-08T01:56:31;4.90;;;2.03;;
34585;SDS011;20816;50.950;11.108;2022-12-08T01:59:06;5.07;;;1.63;;
34585;SDS011;20816;50.950;11.108;2022-12-08T02:01:34;2.33;;;1.20;;
34585;SDS011;20816;50.950;11.108;2022-12-08T02:04:01;1.43;;;1.20;;
34585;SDS011;20816;50.950;11.108;2022-12-08T02:06:31;2.00;;;1.37;;
34585;SDS011;20816;50.950;11.108;2022-12-08T02:09:02;1.20;;;0.83;;
34585;SDS011;20816;50.950;11.108;2022-12-08T02:11:29;1.20;;;1.10;;
34585;SDS011;20816;50.950;11.108;2022-12-08T02:13:55;1.93;;;1.07;;
34585;SDS011;20816;50.950;11.108;2022-12-08T02:16:37;2.23;;;1.50;;
34585;SDS011;20816;50.950;11.108;2022-12-08T02:19:35;2.23;;;1.23;;
34585;SDS011;20816;50.950;11.108;2022-12-08T02:22:30;1.67;;;1.13;;
34585;SDS011;20816;50.950;11.108;2022-12-08T02:45:11;11.43;;;2.27;;
34585;SDS011;20816;50.950;11.108;2022-12-08T02:47:42;3.97;;;2.90;;
34585;SDS011;20816;50.950;11.108;2022-12-08T02:50:10;3.70;;;2.07;;
34585;SDS011;20816;50.950;11.108;2022-12-08T02:52:39;2.07;;;1.60;;
34585;SDS011;20816;50.950;11.108;2022-12-08T02:58:02;3.60;;;1.50;;
34585;SDS011;20816;50.950;11.108;2022-12-08T03:00:59;1.80;;;1.53;;
34585;SDS011;20816;50.950;11.108;2022-12-08T03:08:54;2.60;;;2.23;;
34585;SDS011;20816;50.950;11.108;2022-12-08T03:14:03;2.83;;;1.97;;
34585;SDS011;20816;50.950;11.108;2022-12-08T03:16:33;2.57;;;2.00;;
34585;SDS011;20816;50.950;11.108;2022-12-08T03:21:43;1.67;;;1.33;;
34585;SDS011;20816;50.950;11.108;2022-12-08T03:24:14;2.07;;;1.50;;
34585;SDS011;20816;50.950;11.108;2022-12-08T03:26:45;2.13;;;1.63;;
34585;SDS011;20816;50.950;11.108;2022-12-08T03:29:17;3.80;;;1.87;;
34585;SDS011;20816;50.950;11.108;2022-12-08T03:31:45;2.40;;;1.43;;
34585;SDS011;20816;50.950;11.108;2022-12-08T03:34:18;4.80;;;1.60;;
34585;SDS011;20816;50.950;11.108;2022-12-08T03:36:46;2.43;;;1.57;;
34585;SDS011;20816;50.950;11.108;2022-12-08T03:39:13;1.53;;;1.27;;
34585;SDS011;20816;50.950;11.108;2022-12-08T03:41:40;1.57;;;1.23;;
34585;SDS011;20816;50.950;11.108;2022-12-08T03:44:06;4.13;;;1.03;;
34585;SDS011;20816;50.950;11.108;2022-12-08T03:46:33;2.17;;;1.13;;
34585;SDS011;20816;50.950;11.108;2022-12-08T03:49:00;1.40;;;1.20;;
34585;SDS011;20816;50.950;11.108;2022-12-08T03:51:26;2.47;;;1.70;;
34585;SDS011;20816;50.950;11.108;2022-12-08T03:53:53;1.87;;;1.27;;
34585;SDS011;20816;50.950;11.108;2022-12-08T03:56:24;1.43;;;0.90;;
34585;SDS011;20816;50.950;11.108;2022-12-08T03:58:59;1.67;;;1.37;;
34585;SDS011;20816;50.950;11.108;2022-12-08T04:01:26;1.57;;;1.17;;
34585;SDS011;20816;50.950;11.108;2022-12-08T04:03:53;2.30;;;1.43;;
34585;SDS011;20816;50.950;11.108;2022-12-08T04:06:20;3.37;;;2.17;;
34585;SDS011;20816;50.950;11.108;2022-12-08T04:08:48;3.93;;;1.43;;
34585;SDS011;20816;50.950;11.108;2022-12-08T04:11:15;1.80;;;0.97;;
34585;SDS011;20816;50.950;11.108;2022-12-08T04:13:43;2.20;;;1.33;;
34585;SDS011;20816;50.950;11.108;2022-12-08T04:16:17;2.17;;;1.50;;
34585;SDS011;20816;50.950;11.108;2022-12-08T04:18:47;2.37;;;1.70;;
34585;SDS011;20816;50.950;11.108;2022-12-08T04:21:14;2.87;;;1.93;;
34585;SDS011;20816;50.950;11.108;2022-12-08T04:23:41;1.93;;;1.50;;
34585;SDS011;20816;50.950;11.108;2022-12-08T04:26:08;2.83;;;2.30;;
34585;SDS011;20816;50.950;11.108;2022-12-08T04:28:35;1.80;;;1.30;;
34585;SDS011;20816;50.950;11.108;2022-12-08T04:31:02;2.93;;;2.13;;
34585;SDS011;20816;50.950;11.108;2022-12-08T04:33:29;2.13;;;1.13;;
34585;SDS011;20816;50.950;11.108;2022-12-08T04:35:56;2.23;;;1.73;;
34585;SDS011;20816;50.950;11.108;2022-12-08T04:38:22;2.20;;;1.33;;
34585;SDS011;20816;50.950;11.108;2022-12-08T04:40:50;2.27;;;1.50;;
34585;SDS011;20816;50.950;11.108;2022-12-08T04:43:16;1.93;;;1.47;;
34585;SDS011;20816;50.950;11.108;2022-12-08T04:45:43;2.27;;;2.00;;
34585;SDS011;20816;50.950;11.108;2022-12-08T04:48:09;2.93;;;1.60;;
34585;SDS011;20816;50.950;11.108;2022-12-08T04:50:39;5.63;;;1.47;;
34585;SDS011;20816;50.950;11.108;2022-12-08T04:53:07;2.40;;;2.07;;
34585;SDS011;20816;50.950;11.108;2022-12-08T04:55:37;3.03;;;1.83;;
34585;SDS011;20816;50.950;11.108;2022-12-08T04:58:11;1.67;;;1.57;;
34585;SDS011;20816;50.950;11.108;2022-12-08T05:00:42;2.77;;;1.83;;
34585;SDS011;20816;50.950;11.108;2022-12-08T05:03:09;5.43;;;2.37;;
34585;SDS011;20816;50.950;11.108;2022-12-08T05:05:36;3.67;;;2.03;;
34585;SDS011;20816;50.950;11.108;2022-12-08T05:08:02;2.73;;;1.57;;
34585;SDS011;20816;50.950;11.108;2022-12-08T05:10:30;3.13;;;1.87;;
34585;SDS011;20816;50.950;11.108;2022-12-08T05:12:58;2.70;;;1.77;;
34585;SDS011;20816;50.950;11.108;2022-12-08T05:15:25;3.43;;;1.53;;
34585;SDS011;20816;50.950;11.108;2022-12-08T05:17:52;4.53;;;1.30;;
34585;SDS011;20816;50.950;11.108;2022-12-08T05:20:18;2.00;;;1.27;;
34585;SDS011;20816;50.950;11.108;2022-12-08T05:22:45;2.37;;;1.83;;
34585;SDS011;20816;50.950;11.108;2022-12-08T05:25:13;5.03;;;1.70;;
34585;SDS011;20816;50.950;11.108;2022-12-08T05:27:40;3.53;;;1.77;;
34585;SDS011;20816;50.950;11.108;2022-12-08T05:30:08;2.67;;;1.73;;
34585;SDS011;20816;50.950;11.108;2022-12-08T05:32:35;2.67;;;1.90;;
34585;SDS011;20816;50.950;11.108;2022-12-08T05:35:01;2.83;;;2.23;;
34585;SDS011;20816;50.950;11.108;2022-12-08T05:37:28;2.33;;;2.03;;
34585;SDS011;20816;50.950;11.108;2022-12-08T05:39:54;4.07;;;2.20;;
34585;SDS011;20816;50.950;11.108;2022-12-08T05:42:21;3.37;;;2.23;;
34585;SDS011;20816;50.950;11.108;2022-12-08T05:44:50;2.57;;;1.70;;
34585;SDS011;20816;50.950;11.108;2022-12-08T05:47:17;2.00;;;1.77;;
34585;SDS011;20816;50.950;11.108;2022-12-08T05:49:43;1.40;;;1.30;;
34585;SDS011;20816;50.950;11.108;2022-12-08T05:52:10;2.13;;;1.47;;
34585;SDS011;20816;50.950;11.108;2022-12-08T05:54:37;4.07;;;2.20;;
34585;SDS011;20816;50.950;11.108;2022-12-08T05:57:03;1.97;;;1.67;;
34585;SDS011;20816;50.950;11.108;2022-12-08T05:59:30;3.97;;;2.10;;
34585;SDS011;20816;50.950;11.108;2022-12-08T06:01:57;3.07;;;2.37;;
34585;SDS011;20816;50.950;11.108;2022-12-08T06:04:24;4.57;;;2.33;;
34585;SDS011;20816;50.950;11.108;2022-12-08T06:06:50;3.63;;;1.43;;
34585;SDS011;20816;50.950;11.108;2022-12-08T06:09:17;3.33;;;2.80;;
34585;SDS011;20816;50.950;11.108;2022-12-08T06:11:44;3.50;;;2.13;;
34585;SDS011;20816;50.950;11.108;2022-12-08T06:14:12;6.60;;;2.53;;
34585;SDS011;20816;50.950;11.108;2022-12-08T06:16:39;2.87;;;2.13;;
34585;SDS011;20816;50.950;11.108;2022-12-08T06:19:06;3.90;;;2.37;;
34585;SDS011;20816;50.950;11.108;2022-12-08T06:21:32;2.97;;;2.00;;
34585;SDS011;20816;50.950;11.108;2022-12-08T06:23:59;3.43;;;2.10;;
34585;SDS011;20816;50.950;11.108;2022-12-08T06:26:26;3.77;;;3.00;;
34585;SDS011;20816;50.950;11.108;2022-12-08T06:28:52;5.90;;;2.90;;
34585;SDS011;20816;50.950;11.108;2022-12-08T06:31:21;5.07;;;2.40;;
34585;SDS011;20816;50.950;11.108;2022-12-08T06:33:49;5.10;;;3.10;;
34585;SDS011;20816;50.950;11.108;2022-12-08T06:36:17;6.23;;;3.30;;
34585;SDS011;20816;50.950;11.108;2022-12-08T06:38:45;2.97;;;1.73;;
34585;SDS011;20816;50.950;11.108;2022-12-08T06:41:12;4.13;;;2.03;;
34585;SDS011;20816;50.950;11.108;2022-12-08T06:43:39;2.97;;;1.97;;
34585;SDS011;20816;50.950;11.108;2022-12-08T06:46:07;6.67;;;2.37;;
34585;SDS011;20816;50.950;11.108;2022-12-08T06:48:36;10.13;;;2.23;;
34585;SDS011;20816;50.950;11.108;2022-12-08T06:51:10;2.83;;;1.77;;
34585;SDS011;20816;50.950;11.108;2022-12-08T06:53:42;3.43;;;2.20;;
34585;SDS011;20816;50.950;11.108;2022-12-08T06:56:09;4.33;;;2.03;;
34585;SDS011;20816;50.950;11.108;2022-12-08T06:58:37;4.80;;;2.53;;
34585;SDS011;20816;50.950;11.108;2022-12-08T07:01:05;2.77;;;2.00;;
34585;SDS011;20816;50.950;11.108;2022-12-08T07:03:34;3.27;;;2.27;;
34585;SDS011;20816;50.950;11.108;2022-12-08T07:06:01;2.27;;;1.97;;
34585;SDS011;20816;50.950;11.108;2022-12-08T07:08:29;3.83;;;1.53;;
34585;SDS011;20816;50.950;11.108;2022-12-08T07:10:57;3.10;;;1.83;;
34585;SDS011;20816;50.950;11.108;2022-12-08T07:13:24;2.50;;;2.10;;
34585;SDS011;20816;50.950;11.108;2022-12-08T07:15:51;2.10;;;1.90;;
34585;SDS011;20816;50.950;11.108;2022-12-08T07:18:17;1.60;;;1.30;;
34585;SDS011;20816;50.950;11.108;2022-12-08T07:20:44;3.60;;;2.00;;
34585;SDS011;20816;50.950;11.108;2022-12-08T07:23:11;2.20;;;1.60;;
34585;SDS011;20816;50.950;11.108;2022-12-08T07:25:37;3.73;;;2.13;;
34585;SDS011;20816;50.950;11.108;2022-12-08T07:28:08;2.07;;;1.63;;
34585;SDS011;20816;50.950;11.108;2022-12-08T07:30:37;3.47;;;2.40;;
34585;SDS011;20816;50.950;11.108;2022-12-08T07:33:05;2.73;;;2.40;;
34585;SDS011;20816;50.950;11.108;2022-12-08T07:35:32;3.40;;;1.97;;
34585;SDS011;20816;50.950;11.108;2022-12-08T07:38:01;3.50;;;1.90;;
34585;SDS011;20816;50.950;11.108;2022-12-08T07:40:28;3.33;;;2.13;;
34585;SDS011;20816;50.950;11.108;2022-12-08T07:42:55;6.70;;;2.67;;
34585;SDS011;20816;50.950;11.108;2022-12-08T07:45:22;5.00;;;1.70;;
34585;SDS011;20816;50.950;11.108;2022-12-08T07:47:56;3.33;;;1.93;;
34585;SDS011;20816;50.950;11.108;2022-12-08T07:50:23;3.77;;;2.50;;
34585;SDS011;20816;50.950;11.108;2022-12-08T07:52:50;3.57;;;2.40;;
34585;SDS011;20816;50.950;11.108;2022-12-08T07:55:17;3.87;;;2.30;;
34585;SDS011;20816;50.950;11.108;2022-12-08T07:57:43;2.30;;;1.97;;
34585;SDS011;20816;50.950;11.108;2022-12-08T08:00:10;4.23;;;2.33;;
34585;SDS011;20816;50.950;11.108;2022-12-08T08:02:37;5.57;;;3.20;;
34585;SDS011;20816;50.950;11.108;2022-12-08T08:05:05;3.60;;;2.47;;
34585;SDS011;20816;50.950;11.108;2022-12-08T08:07:32;4.83;;;2.63;;
34585;SDS011;20816;50.950;11.108;2022-12-08T08:09:59;1.93;;;1.77;;
34585;SDS011;20816;50.950;11.108;2022-12-08T08:12:26;2.83;;;1.97;;
34585;SDS011;20816;50.950;11.108;2022-12-08T08:14:58;2.40;;;1.90;;
34585;SDS011;20816;50.950;11.108;2022-12-08T08:17:27;3.47;;;1.93;;
34585;SDS011;20816;50.950;11.108;2022-12-08T08:19:55;4.07;;;2.60;;
34585;SDS011;20816;50.950;11.108;2022-12-08T08:22:23;5.80;;;2.70;;
34585;SDS011;20816;50.950;11.108;2022-12-08T08:24:51;4.63;;;3.03;;
34585;SDS011;20816;50.950;11.108;2022-12-08T08:27:18;4.90;;;2.80;;
34585;SDS011;20816;50.950;11.108;2022-12-08T08:29:46;5.67;;;2.50;;
34585;SDS011;20816;50.950;11.108;2022-12-08T08:32:13;4.30;;;2.73;;
34585;SDS011;20816;50.950;11.108;2022-12-08T08:34:54;3.53;;;1.97;;
34585;SDS011;20816;50.950;11.108;2022-12-08T08:37:58;3.70;;;2.40;;
34585;SDS011;20816;50.950;11.108;2022-12-08T08:40:29;3.93;;;2.40;;
34585;SDS011;20816;50.950;11.108;2022-12-08T08:42:58;3.20;;;2.30;;
34585;SDS011;20816;50.950;11.108;2022-12-08T08:45:29;3.70;;;2.13;;
34585;SDS011;20816;50.950;11.108;2022-12-08T08:48:07;5.90;;;2.43;;
34585;SDS011;20816;50.950;11.108;2022-12-08T08:50:48;4.00;;;2.03;;
34585;SDS011;20816;50.950;11.108;2022-12-08T08:53:24;4.53;;;2.37;;
34585;SDS011;20816;50.950;11.108;2022-12-08T08:55:55;1.93;;;1.47;;
34585;SDS011;20816;50.950;11.108;2022-12-08T08:58:35;2.70;;;1.60;;
34585;SDS011;20816;50.950;11.108;2022-12-08T09:01:06;2.57;;;1.67;;
34585;SDS011;20816;50.950;11.108;2022-12-08T09:03:46;3.50;;;1.60;;
34585;SDS011;20816;50.950;11.108;2022-12-08T09:06:22;2.27;;;1.53;;
34585;SDS011;20816;50.950;11.108;2022-12-08T09:08:53;2.77;;;2.00;;
34585;SDS011;20816;50.950;11.108;2022-12-08T09:11:23;2.47;;;2.10;;
34585;SDS011;20816;50.950;11.108;2022-12-08T09:13:50;2.63;;;1.87;;
34585;SDS011;20816;50.950;11.108;2022-12-08T09:16:19;2.47;;;1.70;;
34585;SDS011;20816;50.950;11.108;2022-12-08T09:18:46;3.03;;;2.37;;
34585;SDS011;20816;50.950;11.108;2022-12-08T09:21:17;3.07;;;2.30;;
34585;SDS011;20816;50.950;11.108;2022-12-08T09:23:48;3.40;;;2.27;;
34585;SDS011;20816;50.950;11.108;2022-12-08T09:26:16;4.40;;;1.83;;
34585;SDS011;20816;50.950;11.108;2022-12-08T09:28:43;2.47;;;2.10;;
34585;SDS011;20816;50.950;11.108;2022-12-08T09:31:12;4.43;;;2.60;;
34585;SDS011;20816;50.950;11.108;2022-12-08T09:33:39;2.67;;;1.70;;
34585;SDS011;20816;50.950;11.108;2022-12-08T09:36:07;3.50;;;2.00;;
34585;SDS011;20816;50.950;11.108;2022-12-08T09:38:36;2.50;;;1.70;;
34585;SDS011;20816;50.950;11.108;2022-12-08T09:41:04;2.13;;;1.93;;
34585;SDS011;20816;50.950;11.108;2022-12-08T09:46:46;4.73;;;2.57;;
34585;SDS011;20816;50.950;11.108;2022-12-08T09:49:17;6.63;;;1.77;;
34585;SDS011;20816;50.950;11.108;2022-12-08T09:51:49;2.37;;;1.63;;
34585;SDS011;20816;50.950;11.108;2022-12-08T09:54:24;2.60;;;1.50;;
34585;SDS011;20816;50.950;11.108;2022-12-08T09:57:02;3.13;;;1.80;;
34585;SDS011;20816;50.950;11.108;2022-12-08T09:59:36;2.17;;;1.53;;
34585;SDS011;20816;50.950;11.108;2022-12-08T10:02:08;1.87;;;1.50;;
34585;SDS011;20816;50.950;11.108;2022-12-08T10:04:45;2.03;;;1.40;;
34585;SDS011;20816;50.950;11.108;2022-12-08T10:15:57;2.90;;;1.73;;
34585;SDS011;20816;50.950;11.108;2022-12-08T10:18:50;1.73;;;1.20;;
34585;SDS011;20816;50.950;11.108;2022-12-08T10:21:23;2.30;;;1.50;;
34585;SDS011;20816;50.950;11.108;2022-12-08T10:23:56;2.90;;;1.17;;
34585;SDS011;20816;50.950;11.108;2022-12-08T10:26:28;2.33;;;1.60;;
34585;SDS011;20816;50.950;11.108;2022-12-08T10:29:00;1.17;;;1.10;;
34585;SDS011;20816;50.950;11.108;2022-12-08T10:31:28;1.10;;;1.00;;
34585;SDS011;20816;50.950;11.108;2022-12-08T10:33:57;1.10;;;1.00;;
34585;SDS011;20816;50.950;11.108;2022-12-08T10:37:08;1.90;;;1.33;;
34585;SDS011;20816;50.950;11.108;2022-12-08T10:39:28;1.73;;;1.07;;
34585;SDS011;20816;50.950;11.108;2022-12-08T10:47:19;1.60;;;1.13;;
34585;SDS011;20816;50.950;11.108;2022-12-08T10:49:47;1.27;;;1.17;;
34585;SDS011;20816;50.950;11.108;2022-12-08T10:52:55;1.40;;;1.20;;
34585;SDS011;20816;50.950;11.108;2022-12-08T10:55:24;1.40;;;1.30;;
34585;SDS011;20816;50.950;11.108;2022-12-08T10:57:51;1.70;;;1.10;;
34585;SDS011;20816;50.950;11.108;2022-12-08T11:00:19;1.37;;;0.90;;
34585;SDS011;20816;50.950;11.108;2022-12-08T11:03:19;1.10;;;0.90;;
34585;SDS011;20816;50.950;11.108;2022-12-08T11:05:47;1.67;;;1.57;;
34585;SDS011;20816;50.950;11.108;2022-12-08T11:08:15;1.00;;;0.87;;
34585;SDS011;20816;50.950;11.108;2022-12-08T11:10:43;2.40;;;0.83;;
34585;SDS011;20816;50.950;11.108;2022-12-08T11:16:07;0.80;;;0.80;;
34585;SDS011;20816;50.950;11.108;2022-12-08T11:18:43;2.00;;;1.27;;
34585;SDS011;20816;50.950;11.108;2022-12-08T11:21:14;1.07;;;0.87;;
34585;SDS011;20816;50.950;11.108;2022-12-08T11:23:46;2.67;;;1.77;;
34585;SDS011;20816;50.950;11.108;2022-12-08T11:26:26;2.63;;;1.20;;
34585;SDS011;20816;50.950;11.108;2022-12-08T11:28:57;1.37;;;0.87;;
34585;SDS011;20816;50.950;11.108;2022-12-08T11:31:34;1.00;;;0.70;;
34585;SDS011;20816;50.950;11.108;2022-12-08T11:34:11;1.27;;;1.00;;
34585;SDS011;20816;50.950;11.108;2022-12-08T11:36:46;0.93;;;0.63;;
34585;SDS011;20816;50.950;11.108;2022-12-08T11:39:14;0.93;;;0.83;;
34585;SDS011;20816;50.950;11.108;2022-12-08T11:41:41;1.20;;;1.03;;
34585;SDS011;20816;50.950;11.108;2022-12-08T11:44:21;1.43;;;1.00;;
34585;SDS011;20816;50.950;11.108;2022-12-08T11:47:00;1.70;;;0.80;;
34585;SDS011;20816;50.950;11.108;2022-12-08T11:49:43;0.67;;;0.67;;
34585;SDS011;20816;50.950;11.108;2022-12-08T11:52:24;1.53;;;1.00;;
34585;SDS011;20816;50.950;11.108;2022-12-08T11:55:04;1.27;;;1.00;;
34585;SDS011;20816;50.950;11.108;2022-12-08T11:57:40;1.50;;;1.07;;
34585;SDS011;20816;50.950;11.108;2022-12-08T12:00:11;1.07;;;0.97;;
34585;SDS011;20816;50.950;11.108;2022-12-08T12:02:43;1.27;;;1.00;;
34585;SDS011;20816;50.950;11.108;2022-12-08T12:05:28;1.30;;;1.07;;
34585;SDS011;20816;50.950;11.108;2022-12-08T12:14:10;2.20;;;1.10;;
34585;SDS011;20816;50.950;11.108;2022-12-08T12:17:03;4.43;;;1.67;;
34585;SDS011;20816;50.950;11.108;2022-12-08T12:19:33;1.37;;;0.70;;
34585;SDS011;20816;50.950;11.108;2022-12-08T12:22:14;1.00;;;0.87;;
34585;SDS011;20816;50.950;11.108;2022-12-08T12:24:45;3.57;;;0.67;;
34585;SDS011;20816;50.950;11.108;2022-12-08T12:29:55;0.60;;;0.60;;
34585;SDS011;20816;50.950;11.108;2022-12-08T12:32:24;1.30;;;0.73;;
34585;SDS011;20816;50.950;11.108;2022-12-08T12:35:04;2.20;;;0.80;;
34585;SDS011;20816;50.950;11.108;2022-12-08T12:37:43;0.80;;;0.57;;
34585;SDS011;20816;50.950;11.108;2022-12-08T12:55:55;1.23;;;0.70;;
34585;SDS011;20816;50.950;11.108;2022-12-08T13:03:36;1.00;;;0.70;;
34585;SDS011;20816;50.950;11.108;2022-12-08T13:06:07;0.93;;;0.83;;
34585;SDS011;20816;50.950;11.108;2022-12-08T13:08:41;1.00;;;0.80;;
34585;SDS011;20816;50.950;11.108;2022-12-08T13:11:16;1.00;;;0.90;;
34585;SDS011;20816;50.950;11.108;2022-12-08T13:13:56;1.40;;;0.83;;
34585;SDS011;20816;50.950;11.108;2022-12-08T13:16:33;1.20;;;1.10;;
34585;SDS011;20816;50.950;11.108;2022-12-08T13:19:03;1.93;;;1.00;;
34585;SDS011;20816;50.950;11.108;2022-12-08T13:21:37;1.53;;;1.43;;
34585;SDS011;20816;50.950;11.108;2022-12-08T13:24:12;1.20;;;1.00;;
34585;SDS011;20816;50.950;11.108;2022-12-08T13:29:31;1.53;;;1.03;;
34585;SDS011;20816;50.950;11.108;2022-12-08T13:31:59;0.80;;;0.80;;
34585;SDS011;20816;50.950;11.108;2022-12-08T13:51:27;0.80;;;0.63;;
34585;SDS011;20816;50.950;11.108;2022-12-08T13:57:24;1.13;;;1.07;;
34585;SDS011;20816;50.950;11.108;2022-12-08T13:59:55;1.80;;;0.93;;
34585;SDS011;20816;50.950;11.108;2022-12-08T14:02:34;1.10;;;0.93;;
34585;SDS011;20816;50.950;11.108;2022-12-08T14:05:10;1.50;;;0.73;;
34585;SDS011;20816;50.950;11.108;2022-12-08T14:07:57;1.60;;;1.10;;
34585;SDS011;20816;50.950;11.108;2022-12-08T14:13:01;2.17;;;1.20;;
34585;SDS011;20816;50.950;11.108;2022-12-08T14:15:31;2.17;;;0.70;;
34585;SDS011;20816;50.950;11.108;2022-12-08T14:18:03;1.13;;;0.90;;
34585;SDS011;20816;50.950;11.108;2022-12-08T14:20:31;1.10;;;0.90;;
34585;SDS011;20816;50.950;11.108;2022-12-08T14:23:20;3.93;;;1.40;;
34585;SDS011;20816;50.950;11.108;2022-12-08T14:25:46;0.60;;;0.60;;
34585;SDS011;20816;50.950;11.108;2022-12-08T14:28:13;1.23;;;1.10;;
34585;SDS011;20816;50.950;11.108;2022-12-08T14:30:40;1.87;;;0.67;;
34585;SDS011;20816;50.950;11.108;2022-12-08T14:33:10;1.10;;;0.97;;
34585;SDS011;20816;50.950;11.108;2022-12-08T14:35:40;1.93;;;1.40;;
34585;SDS011;20816;50.950;11.108;2022-12-08T14:40:42;0.93;;;0.63;;
34585;SDS011;20816;50.950;11.108;2022-12-08T14:43:17;2.23;;;0.70;;
34585;SDS011;20816;50.950;11.108;2022-12-08T14:51:06;2.30;;;1.07;;
34585;SDS011;20816;50.950;11.108;2022-12-08T14:53:53;2.57;;;1.10;;
34585;SDS011;20816;50.950;11.108;2022-12-08T14:56:26;1.23;;;1.13;;
34585;SDS011;20816;50.950;11.108;2022-12-08T14:59:11;1.60;;;1.00;;
34585;SDS011;20816;50.950;11.108;2022-12-08T15:01:41;1.77;;;1.33;;
34585;SDS011;20816;50.950;11.108;2022-12-08T15:06:52;1.07;;;0.87;;
34585;SDS011;20816;50.950;11.108;2022-12-08T15:09:36;2.07;;;1.27;;
34585;SDS011;20816;50.950;11.108;2022-12-08T15:17:47;1.10;;;0.77;;
34585;SDS011;20816;50.950;11.108;2022-12-08T15:23:00;1.87;;;0.97;;
34585;SDS011;20816;50.950;11.108;2022-12-08T15:25:27;5.07;;;0.90;;
34585;SDS011;20816;50.950;11.108;2022-12-08T15:27:54;1.23;;;0.73;;
34585;SDS011;20816;50.950;11.108;2022-12-08T15:30:24;1.10;;;1.00;;
34585;SDS011;20816;50.950;11.108;2022-12-08T15:32:52;0.50;;;0.50;;
34585;SDS011;20816;50.950;11.108;2022-12-08T15:35:19;1.20;;;1.10;;
34585;SDS011;20816;50.950;11.108;2022-12-08T15:37:46;1.77;;;1.20;;
34585;SDS011;20816;50.950;11.108;2022-12-08T15:40:17;1.53;;;1.07;;
34585;SDS011;20816;50.950;11.108;2022-12-08T15:42:46;1.73;;;1.20;;
34585;SDS011;20816;50.950;11.108;2022-12-08T15:45:14;1.33;;;1.20;;
34585;SDS011;20816;50.950;11.108;2022-12-08T15:47:41;1.50;;;1.17;;
34585;SDS011;20816;50.950;11.108;2022-12-08T15:50:13;0.90;;;0.73;;
34585;SDS011;20816;50.950;11.108;2022-12-08T15:52:42;1.37;;;1.00;;
34585;SDS011;20816;50.950;11.108;2022-12-08T15:55:12;1.53;;;1.40;;
34585;SDS011;20816;50.950;11.108;2022-12-08T15:57:42;2.33;;;1.40;;
34585;SDS011;20816;50.950;11.108;2022-12-08T16:00:32;1.23;;;1.13;;
34585;SDS011;20816;50.950;11.108;2022-12-08T16:03:20;1.87;;;1.50;;
34585;SDS011;20816;50.950;11.108;2022-12-08T16:06:11;1.93;;;1.20;;
34585;SDS011;20816;50.950;11.108;2022-12-08T16:09:05;2.53;;;1.60;;
34585;SDS011;20816;50.950;11.108;2022-12-08T16:11:39;0.60;;;0.60;;
34585;SDS011;20816;50.950;11.108;2022-12-08T16:14:35;2.00;;;1.50;;
34585;SDS011;20816;50.950;11.108;2022-12-08T16:17:23;2.73;;;1.57;;
34585;SDS011;20816;50.950;11.108;2022-12-08T16:19:50;1.80;;;1.30;;
34585;SDS011;20816;50.950;11.108;2022-12-08T16:22:18;2.67;;;1.50;;
34585;SDS011;20816;50.950;11.108;2022-12-08T16:25:13;1.47;;;1.10;;
34585;SDS011;20816;50.950;11.108;2022-12-08T16:27:45;5.97;;;1.83;;
34585;SDS011;20816;50.950;11.108;2022-12-08T16:30:32;1.67;;;1.57;;
34585;SDS011;20816;50.950;11.108;2022-12-08T16:32:59;2.53;;;1.33;;
34585;SDS011;20816;50.950;11.108;2022-12-08T16:35:26;2.87;;;1.17;;
34585;SDS011;20816;50.950;11.108;2022-12-08T16:37:53;1.63;;;1.03;;
34585;SDS011;20816;50.950;11.108;2022-12-08T16:40:19;1.90;;;1.50;;
34585;SDS011;20816;50.950;11.108;2022-12-08T16:42:46;1.57;;;1.13;;
34585;SDS011;20816;50.950;11.108;2022-12-08T16:45:16;2.57;;;1.73;;
34585;SDS011;20816;50.950;11.108;2022-12-08T16:47:46;1.50;;;1.23;;
34585;SDS011;20816;50.950;11.108;2022-12-08T16:50:24;1.27;;;0.97;;
34585;SDS011;20816;50.950;11.108;2022-12-08T16:55:23;2.60;;;1.57;;
34585;SDS011;20816;50.950;11.108;2022-12-08T16:57:50;2.03;;;1.57;;
34585;SDS011;20816;50.950;11.108;2022-12-08T17:00:21;3.73;;;1.80;;
34585;SDS011;20816;50.950;11.108;2022-12-08T17:02:49;1.73;;;1.27;;
34585;SDS011;20816;50.950;11.108;2022-12-08T17:05:18;0.97;;;0.80;;
34585;SDS011;20816;50.950;11.108;2022-12-08T17:07:47;2.63;;;1.40;;